sensor_id;sensor_type;location;lat;lon;timestamp;P1;durP1;ratioP1;P2;durP2;ratioP2
5684;SDS011;2865;53.114;9.130;2024-03-08T00:01:25;24.30;;;15.60;;
5684;SDS011;2865;53.114;9.130;2024-03-08T00:03:51;26.07;;;15.27;;
5684;SDS011;2865;53.114;9.130;2024-03-08T00:06:16;28.17;;;15.93;;
5684;SDS011;2865;53.114;9.130;2024-03-08T00:08:41;21.00;;;14.00;;
5684;SDS011;2865;53.114;9.130;2024-03-08T00:11:07;24.93;;;16.50;;
5684;SDS011;2865;53.114;9.130;2024-03-08T00:13:32;25.80;;;15.90;;
5684;SDS011;2865;53.114;9.130;2024-03-08T00:15:57;23.50;;;14.90;;
5684;SDS011;2865;53.114;9.130;2024-03-08T00:18:23;26.00;;;16.60;;
5684;SDS011;2865;53.114;9.130;2024-03-08T00:20:48;26.80;;;17.13;;
5684;SDS011;2865;53.114;9.130;2024-03-08T00:23:13;20.00;;;13.73;;
5684;SDS011;2865;53.114;9.130;2024-03-08T00:28:22;23.90;;;16.70;;
5684;SDS011;2865;53.114;9.130;2024-03-08T00:30:47;21.40;;;14.70;;
5684;SDS011;2865;53.114;9.130;2024-03-08T00:33:13;25.80;;;15.47;;
5684;SDS011;2865;53.114;9.130;2024-03-08T00:35:39;19.63;;;13.37;;
5684;SDS011;2865;53.114;9.130;2024-03-08T00:38:04;22.00;;;15.60;;
5684;SDS011;2865;53.114;9.130;2024-03-08T00:40:29;24.17;;;14.50;;
5684;SDS011;2865;53.114;9.130;2024-03-08T00:42:55;20.23;;;14.50;;
5684;SDS011;2865;53.114;9.130;2024-03-08T00:45:20;27.30;;;15.40;;
5684;SDS011;2865;53.114;9.130;2024-03-08T00:47:45;21.00;;;15.03;;
5684;SDS011;2865;53.114;9.130;2024-03-08T00:50:10;26.63;;;16.47;;
5684;SDS011;2865;53.114;9.130;2024-03-08T00:52:36;28.40;;;16.13;;
5684;SDS011;2865;53.114;9.130;2024-03-08T00:55:02;22.57;;;15.47;;
5684;SDS011;2865;53.114;9.130;2024-03-08T00:57:28;17.23;;;14.43;;
5684;SDS011;2865;53.114;9.130;2024-03-08T00:59:53;23.00;;;15.23;;
5684;SDS011;2865;53.114;9.130;2024-03-08T01:02:19;20.40;;;14.70;;
5684;SDS011;2865;53.114;9.130;2024-03-08T01:04:43;20.50;;;15.23;;
5684;SDS011;2865;53.114;9.130;2024-03-08T01:07:09;29.10;;;16.50;;
5684;SDS011;2865;53.114;9.130;2024-03-08T01:09:34;25.53;;;15.77;;
5684;SDS011;2865;53.114;9.130;2024-03-08T01:11:59;24.43;;;16.13;;
5684;SDS011;2865;53.114;9.130;2024-03-08T01:14:25;23.60;;;15.60;;
5684;SDS011;2865;53.114;9.130;2024-03-08T01:16:51;22.52;;;15.40;;
5684;SDS011;2865;53.114;9.130;2024-03-08T01:19:16;19.10;;;14.17;;
5684;SDS011;2865;53.114;9.130;2024-03-08T01:21:41;20.80;;;14.90;;
5684;SDS011;2865;53.114;9.130;2024-03-08T01:24:07;29.33;;;16.17;;
5684;SDS011;2865;53.114;9.130;2024-03-08T01:26:32;24.97;;;15.30;;
5684;SDS011;2865;53.114;9.130;2024-03-08T01:28:57;23.10;;;15.50;;
5684;SDS011;2865;53.114;9.130;2024-03-08T01:31:23;21.53;;;16.10;;
5684;SDS011;2865;53.114;9.130;2024-03-08T01:33:48;22.97;;;14.87;;
5684;SDS011;2865;53.114;9.130;2024-03-08T01:36:13;28.60;;;16.10;;
5684;SDS011;2865;53.114;9.130;2024-03-08T01:38:38;23.10;;;15.10;;
5684;SDS011;2865;53.114;9.130;2024-03-08T01:41:04;22.60;;;14.23;;
5684;SDS011;2865;53.114;9.130;2024-03-08T01:43:29;24.13;;;16.17;;
5684;SDS011;2865;53.114;9.130;2024-03-08T01:45:55;27.07;;;16.70;;
5684;SDS011;2865;53.114;9.130;2024-03-08T01:48:20;24.00;;;16.17;;
5684;SDS011;2865;53.114;9.130;2024-03-08T01:50:45;29.40;;;15.93;;
5684;SDS011;2865;53.114;9.130;2024-03-08T01:53:11;19.10;;;15.33;;
5684;SDS011;2865;53.114;9.130;2024-03-08T01:55:36;23.20;;;16.30;;
5684;SDS011;2865;53.114;9.130;2024-03-08T01:58:02;22.73;;;15.00;;
5684;SDS011;2865;53.114;9.130;2024-03-08T02:00:27;22.83;;;14.73;;
5684;SDS011;2865;53.114;9.130;2024-03-08T02:02:53;24.93;;;15.67;;
5684;SDS011;2865;53.114;9.130;2024-03-08T02:05:18;27.07;;;17.30;;
5684;SDS011;2865;53.114;9.130;2024-03-08T02:07:43;24.17;;;15.83;;
5684;SDS011;2865;53.114;9.130;2024-03-08T02:10:09;29.70;;;17.50;;
5684;SDS011;2865;53.114;9.130;2024-03-08T02:12:34;25.40;;;16.17;;
5684;SDS011;2865;53.114;9.130;2024-03-08T02:15:00;26.70;;;15.90;;
5684;SDS011;2865;53.114;9.130;2024-03-08T02:17:25;23.40;;;15.10;;
5684;SDS011;2865;53.114;9.130;2024-03-08T02:19:50;32.67;;;17.87;;
5684;SDS011;2865;53.114;9.130;2024-03-08T02:22:15;26.97;;;16.77;;
5684;SDS011;2865;53.114;9.130;2024-03-08T02:24:41;22.67;;;14.27;;
5684;SDS011;2865;53.114;9.130;2024-03-08T02:27:06;26.33;;;16.47;;
5684;SDS011;2865;53.114;9.130;2024-03-08T02:29:31;26.80;;;16.50;;
5684;SDS011;2865;53.114;9.130;2024-03-08T02:31:56;26.53;;;16.20;;
5684;SDS011;2865;53.114;9.130;2024-03-08T02:34:22;21.50;;;15.90;;
5684;SDS011;2865;53.114;9.130;2024-03-08T02:36:47;25.30;;;16.20;;
5684;SDS011;2865;53.114;9.130;2024-03-08T02:39:12;23.17;;;15.93;;
5684;SDS011;2865;53.114;9.130;2024-03-08T02:41:37;25.83;;;15.57;;
5684;SDS011;2865;53.114;9.130;2024-03-08T02:44:03;24.73;;;16.60;;
5684;SDS011;2865;53.114;9.130;2024-03-08T02:46:28;26.93;;;17.47;;
5684;SDS011;2865;53.114;9.130;2024-03-08T02:48:54;29.77;;;17.53;;
5684;SDS011;2865;53.114;9.130;2024-03-08T02:51:19;21.53;;;15.87;;
5684;SDS011;2865;53.114;9.130;2024-03-08T02:53:44;25.00;;;17.20;;
5684;SDS011;2865;53.114;9.130;2024-03-08T02:56:09;22.13;;;16.80;;
5684;SDS011;2865;53.114;9.130;2024-03-08T02:58:35;26.13;;;16.43;;
5684;SDS011;2865;53.114;9.130;2024-03-08T03:01:00;24.60;;;16.20;;
5684;SDS011;2865;53.114;9.130;2024-03-08T03:03:26;21.67;;;15.83;;
5684;SDS011;2865;53.114;9.130;2024-03-08T03:05:51;22.57;;;15.77;;
5684;SDS011;2865;53.114;9.130;2024-03-08T03:08:16;25.57;;;16.73;;
5684;SDS011;2865;53.114;9.130;2024-03-08T03:10:41;26.00;;;16.83;;
5684;SDS011;2865;53.114;9.130;2024-03-08T03:13:07;25.03;;;16.00;;
5684;SDS011;2865;53.114;9.130;2024-03-08T03:15:32;27.17;;;15.20;;
5684;SDS011;2865;53.114;9.130;2024-03-08T03:17:57;24.80;;;15.03;;
5684;SDS011;2865;53.114;9.130;2024-03-08T03:20:23;26.33;;;17.23;;
5684;SDS011;2865;53.114;9.130;2024-03-08T03:22:49;30.30;;;16.93;;
5684;SDS011;2865;53.114;9.130;2024-03-08T03:25:14;25.90;;;16.73;;
5684;SDS011;2865;53.114;9.130;2024-03-08T03:27:39;26.23;;;15.33;;
5684;SDS011;2865;53.114;9.130;2024-03-08T03:30:05;28.50;;;15.97;;
5684;SDS011;2865;53.114;9.130;2024-03-08T03:32:37;23.30;;;15.90;;
5684;SDS011;2865;53.114;9.130;2024-03-08T03:35:02;29.13;;;16.23;;
5684;SDS011;2865;53.114;9.130;2024-03-08T03:37:28;23.17;;;16.87;;
5684;SDS011;2865;53.114;9.130;2024-03-08T03:39:53;26.50;;;16.70;;
5684;SDS011;2865;53.114;9.130;2024-03-08T03:42:19;30.30;;;18.37;;
5684;SDS011;2865;53.114;9.130;2024-03-08T03:44:44;26.60;;;16.90;;
5684;SDS011;2865;53.114;9.130;2024-03-08T03:47:09;31.67;;;17.97;;
5684;SDS011;2865;53.114;9.130;2024-03-08T03:49:34;27.30;;;16.03;;
5684;SDS011;2865;53.114;9.130;2024-03-08T03:51:59;25.30;;;18.20;;
5684;SDS011;2865;53.114;9.130;2024-03-08T03:54:25;28.67;;;17.80;;
5684;SDS011;2865;53.114;9.130;2024-03-08T03:56:50;29.43;;;17.93;;
5684;SDS011;2865;53.114;9.130;2024-03-08T03:59:16;26.50;;;17.60;;
5684;SDS011;2865;53.114;9.130;2024-03-08T04:01:42;26.13;;;18.10;;
5684;SDS011;2865;53.114;9.130;2024-03-08T04:04:07;28.00;;;19.10;;
5684;SDS011;2865;53.114;9.130;2024-03-08T04:06:32;28.97;;;18.70;;
5684;SDS011;2865;53.114;9.130;2024-03-08T04:08:57;26.07;;;17.57;;
5684;SDS011;2865;53.114;9.130;2024-03-08T04:11:22;29.83;;;19.40;;
5684;SDS011;2865;53.114;9.130;2024-03-08T04:13:48;33.60;;;18.30;;
5684;SDS011;2865;53.114;9.130;2024-03-08T04:16:13;25.63;;;17.87;;
5684;SDS011;2865;53.114;9.130;2024-03-08T04:18:38;26.67;;;17.10;;
5684;SDS011;2865;53.114;9.130;2024-03-08T04:21:04;30.90;;;18.27;;
5684;SDS011;2865;53.114;9.130;2024-03-08T04:23:29;28.93;;;17.57;;
5684;SDS011;2865;53.114;9.130;2024-03-08T04:25:54;25.03;;;17.43;;
5684;SDS011;2865;53.114;9.130;2024-03-08T04:28:20;33.07;;;17.13;;
5684;SDS011;2865;53.114;9.130;2024-03-08T04:30:45;24.10;;;16.10;;
5684;SDS011;2865;53.114;9.130;2024-03-08T04:33:10;30.17;;;18.50;;
5684;SDS011;2865;53.114;9.130;2024-03-08T04:35:36;29.07;;;18.37;;
5684;SDS011;2865;53.114;9.130;2024-03-08T04:38:01;28.93;;;17.17;;
5684;SDS011;2865;53.114;9.130;2024-03-08T04:40:26;29.50;;;18.30;;
5684;SDS011;2865;53.114;9.130;2024-03-08T04:42:51;28.27;;;18.43;;
5684;SDS011;2865;53.114;9.130;2024-03-08T04:45:17;27.83;;;18.13;;
5684;SDS011;2865;53.114;9.130;2024-03-08T04:47:43;25.90;;;16.87;;
5684;SDS011;2865;53.114;9.130;2024-03-08T04:50:08;27.57;;;17.80;;
5684;SDS011;2865;53.114;9.130;2024-03-08T04:52:34;27.47;;;17.47;;
5684;SDS011;2865;53.114;9.130;2024-03-08T04:55:00;30.17;;;18.90;;
5684;SDS011;2865;53.114;9.130;2024-03-08T04:57:26;27.40;;;17.80;;
5684;SDS011;2865;53.114;9.130;2024-03-08T04:59:51;29.30;;;17.43;;
5684;SDS011;2865;53.114;9.130;2024-03-08T05:02:17;26.70;;;17.40;;
5684;SDS011;2865;53.114;9.130;2024-03-08T05:04:43;33.80;;;18.13;;
5684;SDS011;2865;53.114;9.130;2024-03-08T05:07:08;26.07;;;16.87;;
5684;SDS011;2865;53.114;9.130;2024-03-08T05:09:33;28.00;;;18.23;;
5684;SDS011;2865;53.114;9.130;2024-03-08T05:11:59;27.90;;;19.00;;
5684;SDS011;2865;53.114;9.130;2024-03-08T05:14:24;31.13;;;18.57;;
5684;SDS011;2865;53.114;9.130;2024-03-08T05:16:49;33.40;;;18.63;;
5684;SDS011;2865;53.114;9.130;2024-03-08T05:19:17;29.57;;;17.30;;
5684;SDS011;2865;53.114;9.130;2024-03-08T05:21:42;27.20;;;18.27;;
5684;SDS011;2865;53.114;9.130;2024-03-08T05:24:07;32.40;;;17.80;;
5684;SDS011;2865;53.114;9.130;2024-03-08T05:26:32;33.97;;;17.80;;
5684;SDS011;2865;53.114;9.130;2024-03-08T05:28:58;29.20;;;18.13;;
5684;SDS011;2865;53.114;9.130;2024-03-08T05:31:23;27.53;;;17.77;;
5684;SDS011;2865;53.114;9.130;2024-03-08T05:33:48;35.40;;;18.97;;
5684;SDS011;2865;53.114;9.130;2024-03-08T05:36:13;30.87;;;18.97;;
5684;SDS011;2865;53.114;9.130;2024-03-08T05:38:39;30.80;;;18.10;;
5684;SDS011;2865;53.114;9.130;2024-03-08T05:41:04;26.47;;;16.77;;
5684;SDS011;2865;53.114;9.130;2024-03-08T05:43:29;27.37;;;17.03;;
5684;SDS011;2865;53.114;9.130;2024-03-08T05:45:55;28.60;;;17.80;;
5684;SDS011;2865;53.114;9.130;2024-03-08T05:48:20;32.60;;;19.47;;
5684;SDS011;2865;53.114;9.130;2024-03-08T05:50:45;28.40;;;18.00;;
5684;SDS011;2865;53.114;9.130;2024-03-08T05:53:11;29.40;;;18.90;;
5684;SDS011;2865;53.114;9.130;2024-03-08T05:55:36;34.43;;;19.37;;
5684;SDS011;2865;53.114;9.130;2024-03-08T05:58:01;32.10;;;19.07;;
5684;SDS011;2865;53.114;9.130;2024-03-08T06:00:27;32.90;;;19.80;;
5684;SDS011;2865;53.114;9.130;2024-03-08T06:02:52;30.80;;;20.47;;
5684;SDS011;2865;53.114;9.130;2024-03-08T06:05:17;29.40;;;18.53;;
5684;SDS011;2865;53.114;9.130;2024-03-08T06:07:43;32.40;;;19.83;;
5684;SDS011;2865;53.114;9.130;2024-03-08T06:10:09;26.70;;;18.10;;
5684;SDS011;2865;53.114;9.130;2024-03-08T06:12:36;27.37;;;17.50;;
5684;SDS011;2865;53.114;9.130;2024-03-08T06:15:01;30.93;;;18.60;;
5684;SDS011;2865;53.114;9.130;2024-03-08T06:17:26;32.83;;;19.00;;
5684;SDS011;2865;53.114;9.130;2024-03-08T06:19:51;31.83;;;19.63;;
5684;SDS011;2865;53.114;9.130;2024-03-08T06:22:17;26.40;;;17.90;;
5684;SDS011;2865;53.114;9.130;2024-03-08T06:24:42;24.33;;;17.50;;
5684;SDS011;2865;53.114;9.130;2024-03-08T06:27:09;31.95;;;18.80;;
5684;SDS011;2865;53.114;9.130;2024-03-08T06:29:34;40.63;;;19.90;;
5684;SDS011;2865;53.114;9.130;2024-03-08T06:32:00;29.80;;;19.77;;
5684;SDS011;2865;53.114;9.130;2024-03-08T06:34:25;30.00;;;18.97;;
5684;SDS011;2865;53.114;9.130;2024-03-08T06:36:51;27.87;;;19.20;;
5684;SDS011;2865;53.114;9.130;2024-03-08T06:39:16;32.00;;;18.73;;
5684;SDS011;2865;53.114;9.130;2024-03-08T06:41:41;33.07;;;20.40;;
5684;SDS011;2865;53.114;9.130;2024-03-08T06:44:07;32.43;;;19.50;;
5684;SDS011;2865;53.114;9.130;2024-03-08T06:46:32;27.50;;;19.17;;
5684;SDS011;2865;53.114;9.130;2024-03-08T06:48:58;31.03;;;20.17;;
5684;SDS011;2865;53.114;9.130;2024-03-08T06:51:23;29.17;;;19.00;;
5684;SDS011;2865;53.114;9.130;2024-03-08T06:53:49;38.07;;;20.50;;
5684;SDS011;2865;53.114;9.130;2024-03-08T06:56:14;27.57;;;18.73;;
5684;SDS011;2865;53.114;9.130;2024-03-08T06:58:40;33.88;;;20.50;;
5684;SDS011;2865;53.114;9.130;2024-03-08T07:01:05;29.33;;;19.20;;
5684;SDS011;2865;53.114;9.130;2024-03-08T07:03:31;25.70;;;17.90;;
5684;SDS011;2865;53.114;9.130;2024-03-08T07:05:57;31.43;;;18.40;;
5684;SDS011;2865;53.114;9.130;2024-03-08T07:08:22;28.47;;;17.70;;
5684;SDS011;2865;53.114;9.130;2024-03-08T07:10:47;26.37;;;18.50;;
5684;SDS011;2865;53.114;9.130;2024-03-08T07:13:13;32.50;;;18.90;;
5684;SDS011;2865;53.114;9.130;2024-03-08T07:15:38;23.50;;;15.57;;
5684;SDS011;2865;53.114;9.130;2024-03-08T07:18:03;27.97;;;18.93;;
5684;SDS011;2865;53.114;9.130;2024-03-08T07:20:29;23.60;;;16.40;;
5684;SDS011;2865;53.114;9.130;2024-03-08T07:22:54;27.93;;;18.90;;
5684;SDS011;2865;53.114;9.130;2024-03-08T07:25:20;27.17;;;18.63;;
5684;SDS011;2865;53.114;9.130;2024-03-08T07:27:46;29.33;;;19.70;;
5684;SDS011;2865;53.114;9.130;2024-03-08T07:30:13;24.87;;;16.20;;
5684;SDS011;2865;53.114;9.130;2024-03-08T07:32:38;24.93;;;17.57;;
5684;SDS011;2865;53.114;9.130;2024-03-08T07:35:04;23.50;;;17.83;;
5684;SDS011;2865;53.114;9.130;2024-03-08T07:37:29;27.83;;;17.60;;
5684;SDS011;2865;53.114;9.130;2024-03-08T07:39:54;28.80;;;17.30;;
5684;SDS011;2865;53.114;9.130;2024-03-08T07:42:20;29.80;;;18.47;;
5684;SDS011;2865;53.114;9.130;2024-03-08T07:44:45;27.37;;;18.47;;
5684;SDS011;2865;53.114;9.130;2024-03-08T07:47:10;31.60;;;18.20;;
5684;SDS011;2865;53.114;9.130;2024-03-08T07:49:36;26.77;;;18.30;;
5684;SDS011;2865;53.114;9.130;2024-03-08T07:52:02;24.20;;;17.23;;
5684;SDS011;2865;53.114;9.130;2024-03-08T07:54:27;24.33;;;16.53;;
5684;SDS011;2865;53.114;9.130;2024-03-08T07:56:52;24.00;;;17.47;;
5684;SDS011;2865;53.114;9.130;2024-03-08T07:59:19;30.17;;;17.53;;
5684;SDS011;2865;53.114;9.130;2024-03-08T08:01:43;25.93;;;17.60;;
5684;SDS011;2865;53.114;9.130;2024-03-08T08:04:08;22.13;;;16.60;;
5684;SDS011;2865;53.114;9.130;2024-03-08T08:06:34;29.63;;;17.63;;
5684;SDS011;2865;53.114;9.130;2024-03-08T08:08:59;26.13;;;18.20;;
5684;SDS011;2865;53.114;9.130;2024-03-08T08:11:27;26.00;;;16.87;;
5684;SDS011;2865;53.114;9.130;2024-03-08T08:13:52;25.07;;;16.30;;
5684;SDS011;2865;53.114;9.130;2024-03-08T08:16:17;23.30;;;16.23;;
5684;SDS011;2865;53.114;9.130;2024-03-08T08:18:42;26.53;;;16.50;;
5684;SDS011;2865;53.114;9.130;2024-03-08T08:21:08;23.70;;;16.23;;
5684;SDS011;2865;53.114;9.130;2024-03-08T08:23:33;25.20;;;16.93;;
5684;SDS011;2865;53.114;9.130;2024-03-08T08:25:58;30.70;;;17.20;;
5684;SDS011;2865;53.114;9.130;2024-03-08T08:28:24;22.50;;;17.03;;
5684;SDS011;2865;53.114;9.130;2024-03-08T08:30:49;24.97;;;17.67;;
5684;SDS011;2865;53.114;9.130;2024-03-08T08:33:14;27.77;;;18.70;;
5684;SDS011;2865;53.114;9.130;2024-03-08T08:35:40;24.47;;;16.50;;
5684;SDS011;2865;53.114;9.130;2024-03-08T08:38:05;22.80;;;15.57;;
5684;SDS011;2865;53.114;9.130;2024-03-08T08:40:30;24.20;;;16.90;;
5684;SDS011;2865;53.114;9.130;2024-03-08T08:42:56;28.57;;;17.63;;
5684;SDS011;2865;53.114;9.130;2024-03-08T08:45:21;25.13;;;17.23;;
5684;SDS011;2865;53.114;9.130;2024-03-08T08:47:46;26.50;;;18.10;;
5684;SDS011;2865;53.114;9.130;2024-03-08T08:50:12;24.70;;;19.83;;
5684;SDS011;2865;53.114;9.130;2024-03-08T08:52:38;31.10;;;18.57;;
5684;SDS011;2865;53.114;9.130;2024-03-08T08:55:03;23.43;;;17.23;;
5684;SDS011;2865;53.114;9.130;2024-03-08T08:57:28;23.10;;;17.27;;
5684;SDS011;2865;53.114;9.130;2024-03-08T08:59:54;24.07;;;17.93;;
5684;SDS011;2865;53.114;9.130;2024-03-08T09:02:19;31.47;;;18.53;;
5684;SDS011;2865;53.114;9.130;2024-03-08T09:04:44;25.87;;;17.07;;
5684;SDS011;2865;53.114;9.130;2024-03-08T09:07:10;24.30;;;16.57;;
5684;SDS011;2865;53.114;9.130;2024-03-08T09:09:35;25.67;;;17.27;;
5684;SDS011;2865;53.114;9.130;2024-03-08T09:12:00;24.67;;;16.87;;
5684;SDS011;2865;53.114;9.130;2024-03-08T09:14:25;23.83;;;17.20;;
5684;SDS011;2865;53.114;9.130;2024-03-08T09:16:51;25.10;;;16.80;;
5684;SDS011;2865;53.114;9.130;2024-03-08T09:19:16;22.07;;;15.90;;
5684;SDS011;2865;53.114;9.130;2024-03-08T09:21:42;20.90;;;15.20;;
5684;SDS011;2865;53.114;9.130;2024-03-08T09:24:07;31.07;;;17.10;;
5684;SDS011;2865;53.114;9.130;2024-03-08T09:26:32;24.70;;;17.17;;
5684;SDS011;2865;53.114;9.130;2024-03-08T09:28:58;26.10;;;17.73;;
5684;SDS011;2865;53.114;9.130;2024-03-08T09:31:23;24.27;;;16.10;;
5684;SDS011;2865;53.114;9.130;2024-03-08T09:33:49;23.73;;;16.07;;
5684;SDS011;2865;53.114;9.130;2024-03-08T09:36:14;19.60;;;14.40;;
5684;SDS011;2865;53.114;9.130;2024-03-08T09:38:40;25.70;;;17.43;;
5684;SDS011;2865;53.114;9.130;2024-03-08T09:41:05;21.70;;;15.13;;
5684;SDS011;2865;53.114;9.130;2024-03-08T09:43:32;20.13;;;16.47;;
5684;SDS011;2865;53.114;9.130;2024-03-08T09:45:57;21.47;;;16.30;;
5684;SDS011;2865;53.114;9.130;2024-03-08T09:48:23;25.67;;;17.37;;
5684;SDS011;2865;53.114;9.130;2024-03-08T09:50:49;22.00;;;16.87;;
5684;SDS011;2865;53.114;9.130;2024-03-08T09:53:15;25.27;;;16.67;;
5684;SDS011;2865;53.114;9.130;2024-03-08T09:55:42;24.87;;;17.33;;
5684;SDS011;2865;53.114;9.130;2024-03-08T09:58:08;26.00;;;16.47;;
5684;SDS011;2865;53.114;9.130;2024-03-08T10:00:40;22.03;;;15.53;;
5684;SDS011;2865;53.114;9.130;2024-03-08T10:03:05;21.07;;;15.10;;
5684;SDS011;2865;53.114;9.130;2024-03-08T10:05:31;27.33;;;16.70;;
5684;SDS011;2865;53.114;9.130;2024-03-08T10:07:57;26.03;;;17.53;;
5684;SDS011;2865;53.114;9.130;2024-03-08T10:10:22;23.40;;;16.27;;
5684;SDS011;2865;53.114;9.130;2024-03-08T10:12:48;28.53;;;17.10;;
5684;SDS011;2865;53.114;9.130;2024-03-08T10:15:13;26.33;;;17.50;;
5684;SDS011;2865;53.114;9.130;2024-03-08T10:17:39;24.70;;;17.33;;
5684;SDS011;2865;53.114;9.130;2024-03-08T10:20:04;22.83;;;17.17;;
5684;SDS011;2865;53.114;9.130;2024-03-08T10:22:30;23.00;;;16.47;;
5684;SDS011;2865;53.114;9.130;2024-03-08T10:24:56;29.10;;;17.67;;
5684;SDS011;2865;53.114;9.130;2024-03-08T10:27:21;27.43;;;16.70;;
5684;SDS011;2865;53.114;9.130;2024-03-08T10:29:48;23.10;;;16.50;;
5684;SDS011;2865;53.114;9.130;2024-03-08T10:32:12;23.77;;;17.90;;
5684;SDS011;2865;53.114;9.130;2024-03-08T10:34:38;23.40;;;16.50;;
5684;SDS011;2865;53.114;9.130;2024-03-08T10:37:03;22.80;;;16.23;;
5684;SDS011;2865;53.114;9.130;2024-03-08T10:39:28;24.37;;;17.80;;
5684;SDS011;2865;53.114;9.130;2024-03-08T10:41:56;24.27;;;17.83;;
5684;SDS011;2865;53.114;9.130;2024-03-08T10:44:30;26.20;;;18.27;;
5684;SDS011;2865;53.114;9.130;2024-03-08T10:46:56;26.30;;;18.50;;
5684;SDS011;2865;53.114;9.130;2024-03-08T10:49:32;25.03;;;16.93;;
5684;SDS011;2865;53.114;9.130;2024-03-08T10:51:57;24.63;;;18.07;;
5684;SDS011;2865;53.114;9.130;2024-03-08T10:54:23;22.30;;;16.03;;
5684;SDS011;2865;53.114;9.130;2024-03-08T10:56:48;23.20;;;16.60;;
5684;SDS011;2865;53.114;9.130;2024-03-08T10:59:13;22.70;;;16.40;;
5684;SDS011;2865;53.114;9.130;2024-03-08T11:01:38;23.23;;;16.60;;
5684;SDS011;2865;53.114;9.130;2024-03-08T11:04:05;24.27;;;17.37;;
5684;SDS011;2865;53.114;9.130;2024-03-08T11:06:41;21.70;;;15.27;;
5684;SDS011;2865;53.114;9.130;2024-03-08T11:09:26;20.57;;;15.47;;
5684;SDS011;2865;53.114;9.130;2024-03-08T11:11:36;25.30;;;16.17;;
5684;SDS011;2865;53.114;9.130;2024-03-08T11:14:02;22.43;;;15.60;;
5684;SDS011;2865;53.114;9.130;2024-03-08T11:19:24;22.80;;;15.73;;
5684;SDS011;2865;53.114;9.130;2024-03-08T11:21:48;23.40;;;15.63;;
5684;SDS011;2865;53.114;9.130;2024-03-08T11:24:14;26.03;;;15.13;;
5684;SDS011;2865;53.114;9.130;2024-03-08T11:26:39;25.60;;;15.43;;
5684;SDS011;2865;53.114;9.130;2024-03-08T11:31:42;22.60;;;16.63;;
5684;SDS011;2865;53.114;9.130;2024-03-08T11:34:14;20.90;;;15.10;;
5684;SDS011;2865;53.114;9.130;2024-03-08T11:36:32;19.80;;;14.77;;
5684;SDS011;2865;53.114;9.130;2024-03-08T11:38:58;21.00;;;14.97;;
5684;SDS011;2865;53.114;9.130;2024-03-08T11:41:23;20.40;;;14.87;;
5684;SDS011;2865;53.114;9.130;2024-03-08T11:43:49;23.67;;;15.20;;
5684;SDS011;2865;53.114;9.130;2024-03-08T11:46:14;21.60;;;13.93;;
5684;SDS011;2865;53.114;9.130;2024-03-08T11:48:39;21.80;;;14.33;;
5684;SDS011;2865;53.114;9.130;2024-03-08T11:51:04;20.37;;;14.33;;
5684;SDS011;2865;53.114;9.130;2024-03-08T11:53:30;20.90;;;14.60;;
5684;SDS011;2865;53.114;9.130;2024-03-08T11:56:05;23.13;;;14.23;;
5684;SDS011;2865;53.114;9.130;2024-03-08T11:58:21;24.03;;;15.50;;
5684;SDS011;2865;53.114;9.130;2024-03-08T12:00:46;21.10;;;15.67;;
5684;SDS011;2865;53.114;9.130;2024-03-08T12:03:11;21.33;;;16.07;;
5684;SDS011;2865;53.114;9.130;2024-03-08T12:05:37;20.90;;;14.80;;
5684;SDS011;2865;53.114;9.130;2024-03-08T12:08:02;22.30;;;14.57;;
5684;SDS011;2865;53.114;9.130;2024-03-08T12:10:28;23.10;;;16.13;;
5684;SDS011;2865;53.114;9.130;2024-03-08T12:12:54;28.23;;;15.80;;
5684;SDS011;2865;53.114;9.130;2024-03-08T12:15:19;21.20;;;15.43;;
5684;SDS011;2865;53.114;9.130;2024-03-08T12:17:44;22.33;;;16.17;;
5684;SDS011;2865;53.114;9.130;2024-03-08T12:20:11;20.70;;;14.90;;
5684;SDS011;2865;53.114;9.130;2024-03-08T12:22:40;20.93;;;15.37;;
5684;SDS011;2865;53.114;9.130;2024-03-08T12:25:02;20.30;;;15.17;;
5684;SDS011;2865;53.114;9.130;2024-03-08T12:27:27;22.70;;;16.43;;
5684;SDS011;2865;53.114;9.130;2024-03-08T12:29:53;21.00;;;15.00;;
5684;SDS011;2865;53.114;9.130;2024-03-08T12:32:18;21.47;;;15.53;;
5684;SDS011;2865;53.114;9.130;2024-03-08T12:34:43;20.00;;;14.67;;
5684;SDS011;2865;53.114;9.130;2024-03-08T12:37:09;25.10;;;16.27;;
5684;SDS011;2865;53.114;9.130;2024-03-08T12:39:34;21.10;;;15.87;;
5684;SDS011;2865;53.114;9.130;2024-03-08T12:42:00;19.90;;;15.57;;
5684;SDS011;2865;53.114;9.130;2024-03-08T12:44:25;29.33;;;16.40;;
5684;SDS011;2865;53.114;9.130;2024-03-08T12:46:50;22.87;;;15.93;;
5684;SDS011;2865;53.114;9.130;2024-03-08T12:49:15;19.93;;;15.80;;
5684;SDS011;2865;53.114;9.130;2024-03-08T12:51:43;23.70;;;17.00;;
5684;SDS011;2865;53.114;9.130;2024-03-08T12:54:08;20.33;;;14.40;;
5684;SDS011;2865;53.114;9.130;2024-03-08T12:56:34;22.27;;;15.40;;
5684;SDS011;2865;53.114;9.130;2024-03-08T12:59:00;24.00;;;15.00;;
5684;SDS011;2865;53.114;9.130;2024-03-08T13:01:25;24.43;;;16.63;;
5684;SDS011;2865;53.114;9.130;2024-03-08T13:03:50;20.53;;;15.03;;
5684;SDS011;2865;53.114;9.130;2024-03-08T13:06:15;24.07;;;16.20;;
5684;SDS011;2865;53.114;9.130;2024-03-08T13:08:41;23.83;;;15.47;;
5684;SDS011;2865;53.114;9.130;2024-03-08T13:11:06;24.90;;;16.30;;
5684;SDS011;2865;53.114;9.130;2024-03-08T13:13:31;22.57;;;16.50;;
5684;SDS011;2865;53.114;9.130;2024-03-08T13:15:56;21.93;;;16.63;;
5684;SDS011;2865;53.114;9.130;2024-03-08T13:18:22;22.40;;;15.50;;
5684;SDS011;2865;53.114;9.130;2024-03-08T13:20:47;26.23;;;17.20;;
5684;SDS011;2865;53.114;9.130;2024-03-08T13:23:12;21.00;;;15.00;;
5684;SDS011;2865;53.114;9.130;2024-03-08T13:25:37;23.47;;;16.63;;
5684;SDS011;2865;53.114;9.130;2024-03-08T13:28:03;20.43;;;15.10;;
5684;SDS011;2865;53.114;9.130;2024-03-08T13:30:28;27.90;;;16.33;;
5684;SDS011;2865;53.114;9.130;2024-03-08T13:32:54;22.57;;;14.80;;
5684;SDS011;2865;53.114;9.130;2024-03-08T13:35:19;21.97;;;16.20;;
5684;SDS011;2865;53.114;9.130;2024-03-08T13:37:44;22.80;;;17.10;;
5684;SDS011;2865;53.114;9.130;2024-03-08T13:40:10;24.63;;;16.10;;
5684;SDS011;2865;53.114;9.130;2024-03-08T13:42:37;22.47;;;16.03;;
5684;SDS011;2865;53.114;9.130;2024-03-08T13:45:02;18.37;;;14.60;;
5684;SDS011;2865;53.114;9.130;2024-03-08T13:47:28;18.30;;;14.73;;
5684;SDS011;2865;53.114;9.130;2024-03-08T13:49:53;22.00;;;16.00;;
5684;SDS011;2865;53.114;9.130;2024-03-08T13:52:19;23.30;;;14.57;;
5684;SDS011;2865;53.114;9.130;2024-03-08T13:54:44;24.37;;;16.60;;
5684;SDS011;2865;53.114;9.130;2024-03-08T13:57:09;24.63;;;16.57;;
5684;SDS011;2865;53.114;9.130;2024-03-08T13:59:34;23.67;;;15.97;;
5684;SDS011;2865;53.114;9.130;2024-03-08T14:02:00;21.50;;;16.20;;
5684;SDS011;2865;53.114;9.130;2024-03-08T14:04:25;24.20;;;15.70;;
5684;SDS011;2865;53.114;9.130;2024-03-08T14:06:50;22.67;;;16.00;;
5684;SDS011;2865;53.114;9.130;2024-03-08T14:09:16;24.70;;;15.43;;
5684;SDS011;2865;53.114;9.130;2024-03-08T14:11:43;20.77;;;15.87;;
5684;SDS011;2865;53.114;9.130;2024-03-08T14:14:08;22.13;;;15.30;;
5684;SDS011;2865;53.114;9.130;2024-03-08T14:16:34;25.93;;;17.80;;
5684;SDS011;2865;53.114;9.130;2024-03-08T14:18:59;25.67;;;17.83;;
5684;SDS011;2865;53.114;9.130;2024-03-08T14:21:24;23.53;;;18.50;;
5684;SDS011;2865;53.114;9.130;2024-03-08T14:23:49;24.57;;;18.43;;
5684;SDS011;2865;53.114;9.130;2024-03-08T14:26:15;27.60;;;17.63;;
5684;SDS011;2865;53.114;9.130;2024-03-08T14:28:40;25.13;;;18.40;;
5684;SDS011;2865;53.114;9.130;2024-03-08T14:31:06;21.70;;;15.53;;
5684;SDS011;2865;53.114;9.130;2024-03-08T14:33:31;21.10;;;15.43;;
5684;SDS011;2865;53.114;9.130;2024-03-08T14:35:56;23.73;;;16.90;;
5684;SDS011;2865;53.114;9.130;2024-03-08T14:38:22;23.23;;;16.23;;
5684;SDS011;2865;53.114;9.130;2024-03-08T14:40:47;18.80;;;14.70;;
5684;SDS011;2865;53.114;9.130;2024-03-08T14:43:12;22.13;;;15.93;;
5684;SDS011;2865;53.114;9.130;2024-03-08T14:45:38;19.80;;;14.63;;